BIAE weather

Arngerðareyri Airport
Arngerðareyri, Westfjords, Iceland

Public forecast

Using degrees Celsius for public forecast. Weather courtesy of forecast.io.

Closest aviation weather report (METAR) to Arngerðareyri Airport

Closest report is Ísafjörður Airport, 21.0 nm (38.9 km) WNW. Retrieved 2019/10/19 13:00 UTC (18 minutes ago):

BIIS 191300Z 21010KT 9999 BKN030 05/M01 Q1017

Closest aviation forecast (TAF) to Arngerðareyri Airport

Closest forecast is Akureyri Airport, 106.7 nm (197.5 km) E. Retrieved 2019/10/19 15:09 UTC (0 seconds ago):

TAF TAF BIAR 191304Z 1915/2015 20014KT CAVOK TX06/1915Z TNM02/2006Z BECMG 2008/2010 9999 SCT028 BKN038 BECMG 2013/2015 -RA SCT015 BKN025 OVC038